Terminal Aerodrome Forecast
Issued by NWS

Home | Current Version | Previous Version | Text Only | Print | Product List | Glossary On
Versions: 1 2 3 4 5 6 7 8 9 10 11 12 13 14
000
FTUS46 KMTR 252339
TAFOAK
TAF
KOAK 252339Z 2600/2706 27012KT P6SM FEW030 SCT250
     FM260400 26006KT P6SM FEW015 SCT250
      TEMPO 2611/2615 BKN012 OVC250
     FM261800 19005KT P6SM FEW020 BKN250
     FM270200 24008KT P6SM BKN050 OVC150=

USA.gov is the U.S. government's official web portal to all federal, state and local government web resources and services.